• Join FlightAware (Why Join?)
  • Login
  • US Flag 
01:48PM EDT


 

Airport Tracker/Info


-or-


 

Live Flight TrackerFlight Track Log ✈ ACA860 ✈ 18-Apr-2013 ✈ CYHZ - EGLL / LHR

Flight Track Log - Related Links

Times and Time Zones

All times are in EDT time to prevent confusion due to time zone crossing. See the ACA860 flight status page for this flight to view local times or setup timezone preferences in your user account.

Time Position Orientation Groundspeed Altitude Reporting Facility
EDT Latitude Longitude Course Direction KTS MPH feet Rate Location/Type
10:50PM 44.8120 -63.5490 136° Southeast 222 255 4,200  Level FlightAware
10:50PM 44.8050 -63.5340 123° Southeast 239 275 4,800 3,000 Climbing FlightAware
10:51PM 44.7890 -63.4810 113° Southeast 275 316 6,200 2,640 Climbing FlightAware
10:51PM 44.7720 -63.4270 114° Southeast 296 341 7,700 2,880 Climbing FlightAware
10:51PM 44.7690 -63.4180 115° Southeast 299 344 7,900 2,400 Climbing FlightAware
10:52PM 44.7780 -63.3280 82° East 312 359 9,900 1,560 Climbing FlightAware
10:53PM 44.8010 -63.2920 48° Northeast 312 359 9,900  Level FlightAware
10:53PM 44.8100 -63.2790 46° Northeast 312 359 9,900  Level FlightAware
10:53PM 44.8340 -63.2410 48° Northeast 312 359 9,900  Level FlightAware
10:54PM 44.8590 -63.2020 48° Northeast 312 359 9,900  Level FlightAware
10:54PM 44.8670 -63.1890 49° Northeast 312 359 9,900 8,520 Level FlightAware
10:55PM 44.9167 -63.0667 49° Northeast 340 391 17,600 4,980 Climbing Moncton Center
10:56PM 45.0000 -62.9333 49° Northeast 380 437 18,600 1,680 Climbing Moncton Center
10:57PM 45.0667 -62.8167 51° Northeast 430 495 21,000 2,400 Climbing Moncton Center
10:58PM 45.1500 -62.6667 52° Northeast 450 518 23,400 2,160 Climbing Moncton Center
10:59PM 45.2000 -62.5167 65° Northeast 460 529 25,400 1,920 Climbing Moncton Center
11:00PM 45.3000 -62.3500 50° Northeast 480 552 27,300 1,320 Climbing Moncton Center
11:06PM 45.7820 -61.4530 50° Northeast 463 533 35,000 1,080 Climbing FlightAware
11:06PM 45.8370 -61.3430 54° Northeast 467 537 35,000  Level FlightAware
11:07PM 45.8880 -61.2420 54° Northeast 467 537 35,000  Level FlightAware
11:08PM 45.9460 -61.1250 54° Northeast 470 541 35,000  Level FlightAware
11:08PM 45.9960 -61.0250 54° Northeast 470 541 35,000  Level FlightAware
11:09PM 46.0470 -60.9220 54° Northeast 470 541 35,000  Level FlightAware
11:10PM 46.1030 -60.8100 54° Northeast 469 540 35,000  Level FlightAware
11:11PM 46.1530 -60.7070 55° Northeast 469 540 35,000  Level FlightAware
11:11PM 46.2100 -60.5910 55° Northeast 469 540 35,000  Level FlightAware
11:12PM 46.2610 -60.4870 55° Northeast 469 540 35,000  Level FlightAware
11:13PM 46.3100 -60.3870 55° Northeast 468 539 35,000  Level FlightAware
11:13PM 46.3650 -60.2730 55° Northeast 468 539 35,000  Level FlightAware
11:14PM 46.4150 -60.1710 55° Northeast 468 539 35,000  Level FlightAware
11:15PM 46.4720 -60.0530 55° Northeast 468 539 35,000  Level FlightAware
11:15PM 46.5200 -59.9520 55° Northeast 469 540 35,000  Level FlightAware
11:16PM 46.5710 -59.8470 55° Northeast 468 539 35,000  Level FlightAware
11:17PM 46.6250 -59.7320 56° Northeast 469 540 35,000  Level FlightAware
11:18PM 46.6750 -59.6280 55° Northeast 469 540 35,000  Level FlightAware
11:18PM 46.7300 -59.5110 56° Northeast 469 540 35,000  Level FlightAware
11:19PM 46.7800 -59.4060 55° Northeast 469 540 35,000  Level FlightAware
11:20PM 46.8300 -59.3000 55° Northeast 469 540 35,000  Level FlightAware
11:20PM 46.8840 -59.1850 55° Northeast 469 540 35,000  Level FlightAware
11:21PM 46.9330 -59.0800 56° Northeast 469 540 35,000  Level FlightAware
11:22PM 46.9860 -58.9660 56° Northeast 468 539 35,000  Level FlightAware
11:22PM 47.0350 -58.8600 56° Northeast 468 539 35,000  Level FlightAware
11:23PM 47.0830 -58.7580 55° Northeast 467 537 35,000  Level FlightAware
11:24PM 47.1320 -58.6540 55° Northeast 467 537 35,000  Level FlightAware
11:25PM 47.1830 -58.5390 57° Northeast 466 536 35,000  Level FlightAware
11:25PM 47.2310 -58.4360 56° Northeast 466 536 35,000  Level FlightAware
11:26PM 47.2720 -58.3460 56° Northeast 466 536 35,000  Level FlightAware
11:27PM 47.3130 -58.2570 56° Northeast 466 536 35,000  Level FlightAware
11:27PM 47.3640 -58.1440 56° Northeast 466 536 35,000  Level FlightAware
11:28PM 47.4050 -58.0550 56° Northeast 466 536 35,000  Level FlightAware
11:29PM 47.4460 -57.9650 56° Northeast 466 536 35,000  Level FlightAware
11:29PM 47.4870 -57.8750 56° Northeast 466 536 35,000  Level FlightAware
11:30PM 47.5280 -57.7850 56° Northeast 466 536 35,000  Level FlightAware
11:31PM 47.5790 -57.6720 56° Northeast 466 536 35,000 660 Level FlightAware
11:32PM 47.6760 -57.4100 61° Northeast 476 548 36,000 720 Climbing FlightAware
11:32PM 47.7120 -57.3120 61° Northeast 476 548 36,000  Level FlightAware
11:33PM 47.7550 -57.1870 63° Northeast 472 543 36,000  Level FlightAware
11:34PM 47.8070 -57.0420 62° Northeast 470 541 36,000  Level FlightAware
11:34PM 47.8520 -56.9160 62° Northeast 468 539 36,000  Level FlightAware
11:35PM 47.9080 -56.7570 62° Northeast 467 537 36,000  Level FlightAware
11:36PM 47.9470 -56.6490 62° Northeast 467 537 36,000  Level FlightAware
11:37PM 47.9930 -56.5180 62° Northeast 472 543 36,000  Level FlightAware
11:37PM 48.0340 -56.4020 62° Northeast 474 545 36,000  Level FlightAware
11:38PM 48.0770 -56.2790 62° Northeast 472 543 36,000  Level FlightAware
11:39PM 48.1180 -56.1630 62° Northeast 475 547 36,000  Level FlightAware
11:40PM 48.1700 -56.0140 62° Northeast 480 552 36,000  Level FlightAware
11:40PM 48.2200 -55.8670 63° Northeast 479 551 36,000  Level FlightAware
11:41PM 48.2620 -55.7460 62° Northeast 481 554 36,000  Level FlightAware
11:42PM 48.3160 -55.5860 63° Northeast 484 557 36,000  Level FlightAware
11:43PM 48.3600 -55.4570 63° Northeast 483 556 36,000  Level FlightAware
11:43PM 48.3970 -55.3430 64° Northeast 479 551 36,000  Level FlightAware
11:44PM 48.4430 -55.2080 63° Northeast 479 551 36,000  Level FlightAware
11:45PM 48.4890 -55.0700 63° Northeast 480 552 36,000  Level FlightAware
11:46PM 48.5280 -54.9550 63° Northeast 475 547 36,000  Level FlightAware
11:46PM 48.5740 -54.8150 64° Northeast 476 548 36,000  Level FlightAware
11:47PM 48.6140 -54.6950 63° Northeast 475 547 36,000  Level FlightAware
11:48PM 48.6590 -54.5600 63° Northeast 475 547 36,000  Level FlightAware
11:49PM 48.7040 -54.4200 64° Northeast 473 544 36,000  Level FlightAware
11:49PM 48.7470 -54.2870 64° Northeast 471 542 36,000  Level FlightAware
11:50PM 48.7850 -54.1700 64° Northeast 466 536 36,000  Level FlightAware
11:51PM 48.8280 -54.0370 64° Northeast 464 534 36,000  Level FlightAware
11:51PM 48.8650 -53.9200 64° Northeast 464 534 36,000  Level FlightAware
11:52PM 48.9030 -53.8020 64° Northeast 464 534 36,000  Level FlightAware
11:53PM 48.9450 -53.6680 64° Northeast 464 534 36,000  Level FlightAware
11:53PM 48.9820 -53.5510 64° Northeast 463 533 36,000  Level FlightAware
11:54PM 49.0200 -53.4310 64° Northeast 464 534 36,000  Level FlightAware
11:55PM 49.0610 -53.2980 65° Northeast 464 534 36,000  Level FlightAware
11:56PM 49.0990 -53.1760 65° Northeast 465 535 36,000  Level FlightAware
11:56PM 49.1400 -53.0430 65° Northeast 468 539 36,000  Level FlightAware
11:57PM 49.1710 -52.9400 65° Northeast 468 539 36,000  Level FlightAware
11:58PM 49.2170 -52.7880 65° Northeast 468 539 36,000  Level FlightAware
11:58PM 49.2490 -52.6820 65° Northeast 467 537 36,000  Level FlightAware
11:59PM 49.2890 -52.5510 65° Northeast 465 535 36,000  Level FlightAware
12:00AM 49.3220 -52.4430 65° Northeast 465 535 36,000  Level FlightAware
12:00AM 49.3520 -52.3410 66° East 465 535 36,000  Level FlightAware
12:01AM 49.4040 -52.1590 66° East 463 533 36,000  Level FlightAware
12:02AM 49.4420 -52.0330 65° Northeast 464 534 36,000  Level FlightAware
12:03AM 49.4810 -51.8990 66° East 463 533 36,000  Level FlightAware
12:03AM 49.5160 -51.7790 66° East 464 534 36,000  Level FlightAware
12:04AM 49.5470 -51.6680 67° East 461 531 36,000  Level FlightAware
12:05AM 49.6120 -51.4410 66° East 462 532 36,000  Level FlightAware
12:06AM 49.6470 -51.3180 66° East 462 532 36,000  Level FlightAware
12:07AM 49.6810 -51.1980 66° East 465 535 36,000  Level FlightAware
12:07AM 49.7150 -51.0740 67° East 466 536 36,000  Level FlightAware
12:08AM 49.7440 -50.9690 67° East 466 536 36,000  Level FlightAware
12:09AM 49.7730 -50.8650 67° East 466 536 36,000  Level FlightAware
12:09AM 49.8010 -50.7600 68° East 466 536 36,000  Level FlightAware
12:10AM 49.8300 -50.6560 67° East 466 536 36,000  Level FlightAware
12:11AM 49.8590 -50.5510 67° East 466 536 36,000  Level FlightAware
12:11AM 49.8940 -50.4200 67° East 466 536 36,000  Level FlightAware
12:12AM 49.9230 -50.3150 67° East 466 536 36,000  Level FlightAware
12:13AM 49.9520 -50.2110 67° East 466 536 36,000  Level FlightAware
12:14AM 50.0000 -50.0000 77° East 503 579 36,000  Level ETMS Enhanced Traffic Management System
12:14AM 49.9870 -50.0790 68° East 466 536 36,000  Level FlightAware
12:14AM 50.0160 -49.9740 67° East 466 536 36,000  Level FlightAware
12:15AM 50.0450 -49.8690 67° East 466 536 36,000  Level FlightAware
12:15AM 50.0333 -49.5167 77° East 490 564 36,000  Level Gander Center
12:16AM 50.0730 -49.7640 67° East 466 536 36,000  Level FlightAware
12:16AM 50.0667 -49.3167 75° East 500 575 36,000  Level Gander Center
12:16AM 50.1020 -49.6590 67° East 466 536 36,000  Level FlightAware
12:17AM 50.0667 -49.0833 90° East 520 598 36,000  Level Gander Center
12:18AM 50.1000 -48.8667 76° East 510 587 36,000  Level Gander Center
12:19AM 50.1333 -48.6667 75° East 500 575 36,000  Level Gander Center
12:20AM 50.1500 -48.4500 83° East 490 564 36,000  Level Gander Center
12:21AM 50.1833 -48.2333 76° East 490 564 36,000  Level Gander Center
12:22AM 50.2167 -47.9833 78° East 500 575 36,000  Level Gander Center
12:23AM 50.2333 -47.8000 82° East 490 564 36,000  Level Gander Center
12:25AM 50.2741 -47.5359 76° East  Level FlightAware Approximate
12:32AM 50.4785 -46.1420 77° East  Level FlightAware Approximate
12:33AM 50.5063 -45.9419 78° East  Level FlightAware Approximate
12:34AM 50.5299 -45.7404 81° East  Level FlightAware Approximate
12:35AM 50.5508 -45.5381 81° East  Level FlightAware Approximate
12:36AM 50.5714 -45.3355 81° East  Level FlightAware Approximate
12:37AM 50.5915 -45.1328 81° East  Level FlightAware Approximate
12:38AM 50.6114 -44.9299 81° East  Level FlightAware Approximate
12:39AM 50.6309 -44.7268 81° East  Level FlightAware Approximate
12:40AM 50.6500 -44.5236 81° East  Level FlightAware Approximate
12:41AM 50.6688 -44.3202 82° East  Level FlightAware Approximate
12:42AM 50.6873 -44.1166 82° East  Level FlightAware Approximate
12:43AM 50.7053 -43.9129 82° East  Level FlightAware Approximate
12:44AM 50.7234 -43.7091 82° East  Level FlightAware Approximate
12:45AM 50.7418 -43.5053 82° East  Level FlightAware Approximate
12:46AM 50.7598 -43.3013 82° East  Level FlightAware Approximate
12:47AM 50.7774 -43.0972 82° East  Level FlightAware Approximate
12:48AM 50.7947 -42.8929 82° East  Level FlightAware Approximate
12:49AM 50.8116 -42.6885 82° East  Level FlightAware Approximate
12:50AM 50.8282 -42.4839 83° East  Level FlightAware Approximate
12:51AM 50.8444 -42.2792 83° East  Level FlightAware Approximate
12:52AM 50.8602 -42.0743 83° East  Level FlightAware Approximate
12:53AM 50.8757 -41.8694 83° East  Level FlightAware Approximate
12:54AM 50.8909 -41.6642 83° East  Level FlightAware Approximate
12:55AM 50.9056 -41.4590 83° East  Level FlightAware Approximate
12:56AM 50.9200 -41.2536 84° East  Level FlightAware Approximate
12:57AM 50.9341 -41.0480 84° East  Level FlightAware Approximate
12:58AM 50.9478 -40.8424 84° East  Level FlightAware Approximate
12:59AM 50.9611 -40.6366 84° East  Level FlightAware Approximate
01:00AM 50.9741 -40.4308 84° East  Level FlightAware Approximate
01:01AM 50.9867 -40.2248 84° East  Level FlightAware Approximate
01:02AM 50.9989 -40.0187 85° East  Level FlightAware Approximate
01:02AM 51.0000 -40.0000 77° East 503 579 36,000  Level ETMS Enhanced Traffic Management System
01:02AM 51.0000 -40.0000 77° East 503 579 36,000  Level ETMS Enhanced Traffic Management System
01:03AM 51.0266 -39.8164 77° East  Level FlightAware Approximate
01:04AM 51.0554 -39.6143 77° East  Level FlightAware Approximate
01:05AM 51.0839 -39.4120 77° East  Level FlightAware Approximate
01:06AM 51.1121 -39.2094 77° East  Level FlightAware Approximate
01:07AM 51.1399 -39.0066 78° East  Level FlightAware Approximate
01:08AM 51.2394 -38.2570 78° East 503 579 36,000  Level FlightAware Transoceanic
01:09AM 51.2675 -38.0378 79° East 503 579 36,000  Level FlightAware Transoceanic
01:10AM 51.2952 -37.8185 79° East 503 579 36,000  Level FlightAware Transoceanic
01:11AM 51.3225 -37.5988 79° East 503 579 36,000  Level FlightAware Transoceanic
01:12AM 51.3493 -37.3789 79° East 503 579 36,000  Level FlightAware Transoceanic
01:13AM 51.3758 -37.1587 79° East 503 579 36,000  Level FlightAware Transoceanic
01:14AM 51.4018 -36.9383 79° East 503 579 36,000  Level FlightAware Transoceanic
01:15AM 51.4274 -36.7176 80° East 503 579 36,000  Level FlightAware Transoceanic
01:16AM 51.4527 -36.4967 80° East 503 579 36,000  Level FlightAware Transoceanic
01:17AM 51.4775 -36.2755 80° East 503 579 36,000  Level FlightAware Transoceanic
01:18AM 51.5018 -36.0541 80° East 503 579 36,000  Level FlightAware Transoceanic
01:19AM 51.5258 -35.8325 80° East 503 579 36,000  Level FlightAware Transoceanic
01:20AM 51.5493 -35.6106 80° East 503 579 36,000  Level FlightAware Transoceanic
01:21AM 51.5725 -35.3885 81° East 503 579 36,000  Level FlightAware Transoceanic
01:22AM 51.5952 -35.1662 81° East 503 579 36,000  Level FlightAware Transoceanic
01:23AM 51.6175 -34.9437 81° East 503 579 36,000  Level FlightAware Transoceanic
01:24AM 51.6393 -34.7210 81° East 503 579 36,000  Level FlightAware Transoceanic
01:25AM 51.6608 -34.4980 81° East 503 579 36,000  Level FlightAware Transoceanic
01:26AM 51.6818 -34.2748 81° East 503 579 36,000  Level FlightAware Transoceanic
01:27AM 51.7024 -34.0514 82° East 503 579 36,000  Level FlightAware Transoceanic
01:28AM 51.7225 -33.8278 82° East 503 579 36,000  Level FlightAware Transoceanic
01:29AM 51.7423 -33.6041 82° East 503 579 36,000  Level FlightAware Transoceanic
01:30AM 51.7616 -33.3801 82° East 503 579 36,000  Level FlightAware Transoceanic
01:31AM 51.7805 -33.1559 82° East 503 579 36,000  Level FlightAware Transoceanic
01:32AM 51.7990 -32.9316 83° East 503 579 36,000  Level FlightAware Transoceanic
01:33AM 51.8170 -32.7071 83° East 503 579 36,000  Level FlightAware Transoceanic
01:34AM 51.8346 -32.4823 83° East 503 579 36,000  Level FlightAware Transoceanic
01:35AM 51.8518 -32.2575 83° East 503 579 36,000  Level FlightAware Transoceanic
01:36AM 51.8686 -32.0324 83° East 503 579 36,000  Level FlightAware Transoceanic
01:37AM 51.8849 -31.8072 83° East 503 579 36,000  Level FlightAware Transoceanic
01:38AM 51.9008 -31.5818 84° East 503 579 36,000  Level FlightAware Transoceanic
01:39AM 51.9163 -31.3563 84° East 503 579 36,000  Level FlightAware Transoceanic
01:40AM 51.9313 -31.1306 84° East 503 579 36,000  Level FlightAware Transoceanic
01:41AM 51.9459 -30.9048 84° East 503 579 36,000  Level FlightAware Transoceanic
01:42AM 51.9601 -30.6788 84° East 503 579 36,000  Level FlightAware Transoceanic
01:43AM 51.9738 -30.4527 84° East 503 579 36,000  Level FlightAware Transoceanic
01:44AM 51.9871 -30.2264 85° East 503 579 36,000  Level FlightAware Transoceanic
01:45AM 51.9991 -30.0163 85° East  Level FlightAware Approximate
01:46AM 52.0106 -29.8062 85° East  Level FlightAware Approximate
01:47AM 52.0066 -29.8221 86° East  Level FlightAware Approximate
01:47AM 52.0000 -30.0000 86° East 515 593 36,000  Level ETMS Enhanced Traffic Management System
01:48AM 52.0142 -29.6115 87° East  Level FlightAware Approximate
01:49AM 52.0213 -29.4007 87° East  Level FlightAware Approximate
01:50AM 52.0281 -29.1899 87° East  Level FlightAware Approximate
01:51AM 52.0345 -28.9790 87° East  Level FlightAware Approximate
01:52AM 52.0406 -28.7681 87° East  Level FlightAware Approximate
01:53AM 52.0641 -28.1425 88° East 515 593 36,000  Level FlightAware Transoceanic
01:54AM 52.0701 -27.9100 88° East 515 593 36,000  Level FlightAware Transoceanic
01:55AM 52.0756 -27.6774 88° East 515 593 36,000  Level FlightAware Transoceanic
01:56AM 52.0806 -27.4448 88° East 515 593 36,000  Level FlightAware Transoceanic
01:57AM 52.0852 -27.2121 88° East 515 593 36,000  Level FlightAware Transoceanic
01:58AM 52.0894 -26.9794 88° East 515 593 36,000  Level FlightAware Transoceanic
01:59AM 52.0930 -26.7466 89° East 515 593 36,000  Level FlightAware Transoceanic
02:00AM 52.0962 -26.5138 89° East 515 593 36,000  Level FlightAware Transoceanic
02:01AM 52.0990 -26.2810 89° East 515 593 36,000  Level FlightAware Transoceanic
02:02AM 52.1013 -26.0481 89° East 515 593 36,000  Level FlightAware Transoceanic
02:03AM 52.1031 -25.8152 89° East 515 593 36,000  Level FlightAware Transoceanic
02:04AM 52.1045 -25.5823 90° East 515 593 36,000  Level FlightAware Transoceanic
02:05AM 52.1054 -25.3494 90° East 515 593 36,000  Level FlightAware Transoceanic
02:06AM 52.1059 -25.1165 90° East 515 593 36,000  Level FlightAware Transoceanic
02:07AM 52.1059 -24.8835 90° East 515 593 36,000  Level FlightAware Transoceanic
02:08AM 52.1054 -24.6506 90° East 515 593 36,000  Level FlightAware Transoceanic
02:09AM 52.1045 -24.4177 90° East 515 593 36,000  Level FlightAware Transoceanic
02:10AM 52.1031 -24.1848 91° East 515 593 36,000  Level FlightAware Transoceanic
02:11AM 52.1013 -23.9519 91° East 515 593 36,000  Level FlightAware Transoceanic
02:12AM 52.0990 -23.7190 91° East 515 593 36,000  Level FlightAware Transoceanic
02:13AM 52.0962 -23.4862 91° East 515 593 36,000  Level FlightAware Transoceanic
02:14AM 52.0930 -23.2534 91° East 515 593 36,000  Level FlightAware Transoceanic
02:15AM 52.0894 -23.0206 92° East 515 593 36,000  Level FlightAware Transoceanic
02:16AM 52.0852 -22.7879 92° East 515 593 36,000  Level FlightAware Transoceanic
02:17AM 52.0806 -22.5552 92° East 515 593 36,000  Level FlightAware Transoceanic
02:18AM 52.0756 -22.3226 92° East 515 593 36,000  Level FlightAware Transoceanic
02:19AM 52.0701 -22.0900 92° East 515 593 36,000  Level FlightAware Transoceanic
02:20AM 52.0641 -21.8575 92° East 515 593 36,000  Level FlightAware Transoceanic
02:21AM 52.0577 -21.6250 93° East 515 593 36,000  Level FlightAware Transoceanic
02:22AM 52.0508 -21.3926 93° East 515 593 36,000  Level FlightAware Transoceanic
02:23AM 52.0435 -21.1603 93° East 515 593 36,000  Level FlightAware Transoceanic
02:24AM 52.0357 -20.9281 93° East 515 593 36,000  Level FlightAware Transoceanic
02:25AM 52.0275 -20.6959 93° East 515 593 36,000  Level FlightAware Transoceanic
02:26AM 52.0188 -20.4639 94° East 515 593 36,000  Level FlightAware Transoceanic
02:27AM 52.0096 -20.2319 94° East 515 593 36,000 -60 Level FlightAware Transoceanic
02:28AM 52.0009 -20.0213 94° East  Level FlightAware Approximate
02:29AM 51.9919 -19.8109 94° East  Level FlightAware Approximate
02:30AM 52.0062 -19.8321 86° East  Level FlightAware Approximate
02:31AM 52.0137 -19.6214 87° East  Level FlightAware Approximate
02:32AM 52.0209 -19.4107 87° East  Level FlightAware Approximate
02:33AM 52.0276 -19.1999 87° East  Level FlightAware Approximate
02:34AM 52.0340 -18.9890 87° East  Level FlightAware Approximate
02:35AM 52.0400 -18.7781 87° East  Level FlightAware Approximate
02:36AM 52.0456 -18.5671 87° East  Level FlightAware Approximate
02:37AM 52.0508 -18.3560 88° East  Level FlightAware Approximate
02:38AM 52.0557 -18.1449 88° East  Level FlightAware Approximate
02:39AM 52.0601 -17.9338 88° East  Level FlightAware Approximate
02:40AM 52.0642 -17.7226 88° East  Level FlightAware Approximate
02:41AM 52.0680 -17.5114 88° East  Level FlightAware Approximate
02:42AM 52.0713 -17.3002 88° East  Level FlightAware Approximate
02:43AM 52.0743 -17.0889 89° East  Level FlightAware Approximate
02:44AM 52.0769 -16.8776 89° East  Level FlightAware Approximate
02:45AM 52.0791 -16.6663 89° East  Level FlightAware Approximate
02:46AM 52.0809 -16.4550 89° East  Level FlightAware Approximate
02:47AM 52.0824 -16.2436 89° East  Level FlightAware Approximate
02:48AM 52.0835 -16.0322 89° East  Level FlightAware Approximate
02:49AM 52.0842 -15.8209 90° East  Level FlightAware Approximate
02:50AM 52.0845 -15.6095 90° East  Level FlightAware Approximate
02:51AM 52.0845 -15.3981 90° East  Level FlightAware Approximate
02:52AM 52.0840 -15.1867 90° East  Level FlightAware Approximate
02:53AM 52.0833 -14.9754 90° East  Level FlightAware Approximate
02:54AM 52.0827 -14.7640 90° East  Level FlightAware Approximate
02:55AM 52.0817 -14.5526 90° East  Level FlightAware Approximate
02:56AM 52.0804 -14.3413 91° East  Level FlightAware Approximate
02:57AM 52.0787 -14.1299 91° East  Level FlightAware Approximate
02:58AM 52.0766 -13.9186 91° East  Level FlightAware Approximate
02:59AM 52.0741 -13.7073 91° East  Level FlightAware Approximate
03:00AM 52.0712 -13.4961 91° East  Level FlightAware Approximate
03:01AM 52.0680 -13.2848 91° East  Level FlightAware Approximate
03:02AM 52.0644 -13.0736 92° East  Level FlightAware Approximate
03:03AM 52.0604 -12.8624 92° East  Level FlightAware Approximate
03:04AM 52.0560 -12.6513 92° East  Level FlightAware Approximate
03:05AM 52.0513 -12.4402 92° East  Level FlightAware Approximate
03:06AM 52.0462 -12.2291 92° East  Level FlightAware Approximate
03:07AM 52.0407 -12.0182 92° East  Level FlightAware Approximate
03:08AM 52.0348 -11.8072 93° East  Level FlightAware Approximate
03:09AM 52.0286 -11.5963 93° East  Level FlightAware Approximate
03:10AM 52.0219 -11.3855 93° East  Level FlightAware Approximate
03:11AM 52.0149 -11.1747 93° East  Level FlightAware Approximate
03:12AM 52.0075 -10.9640 93° East  Level FlightAware Approximate
03:13AM 51.9998 -10.7534 93° East  Level FlightAware Approximate
03:13AM 51.4760 -10.6330 94° East 469 540 35,000  Level FlightAware
03:14AM 51.9917 -10.5429 94° East  Level FlightAware Approximate
03:14AM 51.4890 -10.4990 81° East 468 539 35,000  Level FlightAware
03:15AM 51.5050 -10.3300 81° East 468 539 35,000  Level FlightAware
03:16AM 51.5220 -10.1490 81° East 466 536 35,000  Level FlightAware
03:17AM 51.5350 -9.9990 82° East 465 535 35,000  Level FlightAware
03:18AM 51.5580 -9.7410 82° East 464 534 35,000  Level FlightAware
03:18AM 51.5700 -9.6100 82° East 463 533 35,000  Level FlightAware
03:21AM 51.5816 -9.1819 87° East  Level Estimated
03:21AM 51.6120 -9.1180 87° East 464 534 35,000  Level FlightAware
03:22AM 51.6260 -8.9600 82° East 462 532 35,000 -1,500 Level FlightAware
03:22AM 51.6149 -8.9059 82° East 446 513 33,500 -2,580 Descending FlightAware UK
03:22AM 51.6200 -8.8448 82° East 448 516 33,500 4,980 Level FlightAware UK
03:22AM 51.6340 -8.8540 82° East 460 529 35,000  Climbing FlightAware
03:23AM 51.6250 -8.7836 82° East 444 511 33,500 -2,700 Descending FlightAware UK
03:23AM 51.6300 -8.7222 82° East 442 509 33,400 2,760 Descending FlightAware UK
03:23AM 51.6500 -8.6650 82° East 460 529 35,000  Climbing FlightAware
03:23AM 51.6383 -8.6199 82° East 446 513 33,400 -2,700 Descending FlightAware UK
03:24AM 51.6430 -8.5585 83° East 446 513 33,500 5,040 Climbing FlightAware UK
03:24AM 51.6590 -8.5520 83° East 461 531 35,000  Climbing FlightAware
03:24AM 51.6477 -8.4968 83° East 446 513 33,500 -2,220 Descending FlightAware UK
03:24AM 51.6540 -8.4146 83° East 444 511 33,500 3,180 Level FlightAware UK
03:24AM 51.6720 -8.3940 83° East 462 532 35,000  Climbing FlightAware
03:25AM 51.6603 -8.3321 83° East 448 516 33,500 -2,400 Descending FlightAware UK
03:25AM 51.6651 -8.2704 83° East 448 516 33,500 3,360 Level FlightAware UK
03:25AM 51.6830 -8.2430 83° East 461 531 34,900 -1,020 Climbing FlightAware
03:25AM 51.6717 -8.1875 83° East 448 516 33,100 -840 Descending FlightAware UK
03:26AM 51.6900 -8.1550 82° East 461 531 34,500 -1,380 Climbing FlightAware
03:26AM 51.6769 -8.1258 82° East 450 518 32,700 -7,440 Descending FlightAware UK
03:26AM 51.6801 -8.0846 82° East 448 516 32,400 -1,800 Descending FlightAware UK
03:26AM 51.6850 -8.0228 83° East 446 513 31,800 1,260 Descending FlightAware UK
03:26AM 51.7040 -7.9680 83° East 471 542 33,100 -840 Climbing FlightAware
03:27AM 51.6924 -7.9186 83° East 454 522 31,400 -2,940 Descending FlightAware UK
03:27AM 51.6967 -7.8555 84° East 452 520 31,500 3,180 Climbing FlightAware UK
03:27AM 51.7150 -7.8160 84° East 467 537 33,000  Climbing FlightAware
03:28AM 51.7043 -7.7507 84° East 448 516 31,500 -2,520 Descending FlightAware UK
03:28AM 51.7093 -7.6885 83° East 450 518 31,500 4,080 Level FlightAware UK
03:28AM 51.7250 -7.6860 83° East 463 533 33,000  Climbing FlightAware
03:28AM 51.7155 -7.6059 83° East 452 520 31,500 -2,400 Descending FlightAware UK
03:29AM 51.7198 -7.5443 83° East 448 516 31,500 4,500 Level FlightAware UK
03:29AM 51.7360 -7.5400 83° East 461 531 33,000  Climbing FlightAware
03:29AM 51.7237 -7.4825 83° East 446 513 31,500 -2,700 Descending FlightAware UK
03:29AM 51.7273 -7.4207 85° East 448 516 31,500 3,060 Level FlightAware UK
03:29AM 51.7470 -7.3880 85° East 461 531 33,000  Climbing FlightAware
03:30AM 51.7339 -7.3180 85° East 446 513 31,500 -2,460 Descending FlightAware UK
03:30AM 51.7374 -7.2564 85° East 444 511 31,500 3,420 Level FlightAware UK
03:30AM 51.7570 -7.2410 85° East 461 531 33,000  Climbing FlightAware
03:30AM 51.7426 -7.1742 85° East 446 513 31,500 -2,700 Descending FlightAware UK
03:31AM 51.7470 -7.1125 83° East 448 516 31,500 3,720 Level FlightAware UK
03:31AM 51.7670 -7.1020 83° East 460 529 33,000  Climbing FlightAware
03:31AM 51.7541 -7.0295 83° East 446 513 31,500 -2,520 Descending FlightAware UK
03:31AM 51.7595 -6.9678 82° East 448 516 31,500 3,300 Level FlightAware UK
03:31AM 51.7800 -6.9500 82° East 462 532 33,000  Climbing FlightAware
03:32AM 51.7660 -6.8854 82° East 450 518 31,500 -2,760 Descending FlightAware UK
03:32AM 51.7710 -6.8235 83° East 450 518 31,500 3,600 Level FlightAware UK
03:32AM 51.7910 -6.8130 83° East 462 532 33,000  Climbing FlightAware
03:32AM 51.7772 -6.7408 83° East 452 520 31,500 -2,580 Descending FlightAware UK
03:33AM 51.7817 -6.6787 83° East 450 518 31,500 3,900 Level FlightAware UK
03:33AM 51.8010 -6.6790 83° East 463 533 33,000  Climbing FlightAware
03:33AM 51.7879 -6.5961 83° East 452 520 31,500  Descending FlightAware UK
03:33AM 51.8120 -6.5390 83° East 464 534 33,000  Climbing FlightAware
03:34AM 51.7954 -6.4716 83° East 452 520 31,500 -2,760 Descending FlightAware UK
03:34AM 51.7901 -6.4070 98° East 450 518 31,500 3,000 Level FlightAware UK
03:34AM 51.8100 -6.3820 98° East 473 544 33,000  Climbing FlightAware
03:35AM 51.7861 -6.3008 98° East 452 520 31,500 -2,520 Descending FlightAware UK
03:35AM 51.7837 -6.2371 94° East 452 520 31,500 4,080 Level FlightAware UK
03:35AM 51.8050 -6.2400 94° East 473 544 33,000  Climbing FlightAware
03:35AM 51.7811 -6.1523 94° East 452 520 31,500 -2,400 Descending FlightAware UK
03:36AM 51.7792 -6.0887 93° East 450 518 31,500 4,500 Level FlightAware UK
03:36AM 51.8010 -6.1010 93° East 472 543 33,000  Climbing FlightAware
03:36AM 51.7776 -6.0254 93° East 450 518 31,500 -2,700 Descending FlightAware UK
03:36AM 51.7759 -5.9613 92° East 454 522 31,500 3,060 Level FlightAware UK
03:36AM 51.7960 -5.9360 92° East 474 545 33,000  Climbing FlightAware
03:37AM 51.7689 -5.8556 92° East 454 522 31,500 -2,460 Descending FlightAware UK
03:37AM 51.7634 -5.7921 98° East 454 522 31,500 3,420 Level FlightAware UK
03:37AM 51.7840 -5.7720 98° East 475 547 33,000  Climbing FlightAware
03:37AM 51.7566 -5.7075 98° East 452 520 31,500 -2,700 Descending FlightAware UK
03:38AM 51.7516 -5.6443 97° East 452 520 31,500 3,720 Level FlightAware UK
03:38AM 51.7730 -5.6370 97° East 473 544 33,000  Climbing FlightAware
03:38AM 51.7451 -5.5602 97° East 454 522 31,500 -3,000 Descending FlightAware UK
03:38AM 51.7403 -5.4973 97° East 450 518 31,200 1,980 Descending FlightAware UK
03:38AM 51.7620 -5.4780 97° East 478 550 32,400 -3,000 Climbing FlightAware
03:39AM 51.7340 -5.4128 97° East 458 527 30,000 -5,100 Descending FlightAware UK
03:39AM 51.7296 -5.3445 96° East 466 536 29,600 2,880 Descending FlightAware UK
03:39AM 51.7510 -5.3310 96° East 502 578 31,200 -300 Climbing FlightAware
03:39AM 51.7224 -5.2551 96° East 468 539 29,500 -300 Descending FlightAware UK
03:40AM 51.7400 -5.1840 96° East 500 575 31,000 -180 Climbing FlightAware
03:40AM 51.7097 -5.0999 96° East 466 536 29,400  Descending FlightAware UK
03:40AM 51.7280 -5.0380 96° East 492 566 31,000 120 Climbing FlightAware
03:41AM 51.6987 -4.9688 96° East 460 529 29,500 -2,760 Descending FlightAware UK
03:41AM 51.6931 -4.9038 98° East 460 529 29,500 3,000 Level FlightAware UK
03:41AM 51.7150 -4.8700 98° East 491 565 31,000  Climbing FlightAware
03:42AM 51.6841 -4.7955 98° East 462 532 29,500 -2,520 Descending FlightAware UK
03:42AM 51.6786 -4.7305 98° East 462 532 29,500 3,300 Level FlightAware UK
03:42AM 51.7010 -4.7100 98° East 491 565 31,000  Climbing FlightAware
03:42AM 51.6710 -4.6432 98° East 460 529 29,500 -2,700 Descending FlightAware UK
03:43AM 51.6655 -4.5782 98° East 462 532 29,500 3,720 Level FlightAware UK
03:43AM 51.6900 -4.5650 98° East 491 565 31,000  Climbing FlightAware
03:43AM 51.6583 -4.4913 98° East 466 536 29,500  Descending FlightAware UK
03:43AM 51.6780 -4.4210 98° East 491 565 31,000  Climbing FlightAware
03:44AM 51.6401 -4.2743 98° East 464 534 29,500  Descending FlightAware UK
03:44AM 51.6650 -4.2570 98° East 491 565 31,000  Climbing FlightAware
03:44AM 51.6325 -4.1869 98° East 468 539 29,500 -2,580 Descending FlightAware UK
03:45AM 51.6266 -4.1220 98° East 468 539 29,500 3,900 Level FlightAware UK
03:45AM 51.6520 -4.1120 98° East 489 563 31,000  Climbing FlightAware
03:45AM 51.6151 -3.9959 98° East 442 509 29,500  Descending FlightAware UK
03:45AM 51.6400 -3.9740 98° East 457 526 31,000  Climbing FlightAware
03:46AM 51.6061 -3.8954 98° East 426 490 29,500  Descending FlightAware UK
03:46AM 51.6290 -3.8420 98° East 448 516 31,000  Climbing FlightAware
03:46AM 51.5956 -3.7770 98° East 420 483 29,500 -2,580 Descending FlightAware UK
03:47AM 51.5903 -3.7181 98° East 420 483 29,500 3,180 Level FlightAware UK
03:47AM 51.6160 -3.6940 98° East 447 514 31,000  Climbing FlightAware
03:47AM 51.5795 -3.6003 98° East 424 488 29,500  Descending FlightAware UK
03:47AM 51.6040 -3.5640 98° East 453 521 31,000  Climbing FlightAware
03:48AM 51.5702 -3.5010 98° East 432 497 29,500 -2,700 Descending FlightAware UK
03:48AM 51.5644 -3.4407 99° East 434 499 29,500 3,060 Level FlightAware UK
03:48AM 51.5900 -3.4150 99° East 453 521 31,000 1,920 Climbing FlightAware
03:49AM 51.5813 -3.3181 98° East 454 522 30,700 -2,820 Descending FlightAware ADS-B
03:49AM 51.5450 -3.2401 98° East 430 495 28,700 -780 Descending FlightAware UK
03:49AM 51.5691 -3.1910 98° East 447 514 30,200 -1,020 Climbing FlightAware ADS-B
03:50AM 51.5316 -3.1040 98° East 422 486 28,000 -1,620 Descending FlightAware UK
03:50AM 51.5550 -3.0437 98° East 435 501 29,000 -2,040 Climbing FlightAware ADS-B
03:50AM 51.5189 -2.9707 98° East 410 472 26,600 -2,280 Descending FlightAware UK
03:51AM 51.5459 -2.9437 98° East 431 496 27,800 -1,800 Climbing FlightAware ADS-B
03:51AM 51.5119 -2.8956 98° East 410 472 25,900 -4,200 Descending FlightAware UK
03:51AM 51.5062 -2.8399 99° East 400 460 25,500 -720 Descending FlightAware UK
03:51AM 51.5007 -2.7865 99° East 392 451 25,500 3,420 Level FlightAware UK
03:52AM 51.5286 -2.7640 99° East 424 488 27,000 -540 Climbing FlightAware ADS-B
03:52AM 51.4938 -2.7145 99° East 398 458 25,300 -840 Descending FlightAware UK
03:52AM 51.5199 -2.6727 99° East 413 475 26,600 2,100 Climbing FlightAware ADS-B
03:52AM 51.5157 -2.6316 99° East 414 476 26,300 -3,960 Descending FlightAware ADS-B
03:53AM 51.4792 -2.5700 99° East 388 447 24,300 -1,440 Descending FlightAware UK
03:53AM 51.5063 -2.5391 99° East 409 471 25,600 -1,020 Climbing FlightAware ADS-B
03:53AM 51.4700 -2.4810 99° East 390 449 23,800 -1,140 Descending FlightAware UK
03:53AM 51.4967 -2.4431 99° East 397 457 25,000 -1,800 Climbing FlightAware ADS-B
03:54AM 51.4609 -2.3954 99° East 380 437 22,900 -1,980 Descending FlightAware UK
03:54AM 51.4872 -2.3538 99° East 392 451 24,000 240 Climbing FlightAware ADS-B
03:54AM 51.4783 -2.2685 99° East 384 442 23,100 -1,800 Descending FlightAware ADS-B
03:55AM 51.4690 -2.1843 100° East 376 433 22,200 -4,140 Descending FlightAware ADS-B
03:55AM 51.4336 -2.1446 100° East 356 410 19,900 -2,820 Descending FlightAware UK
03:55AM 51.4601 -2.0994 100° East 376 433 20,800 -2,340 Climbing FlightAware ADS-B
03:56AM 51.4232 -2.0469 100° East 352 405 18,500 -2,160 Descending FlightAware UK
03:56AM 51.4510 -2.0176 100° East 372 428 19,700 -2,220 Climbing FlightAware ADS-B
03:56AM 51.4140 -1.9656 100° East 350 403 17,400 -2,220 Descending FlightAware UK
03:56AM 51.4411 -1.9281 100° East 365 420 18,500 -2,220 Climbing FlightAware ADS-B
03:57AM 51.4053 -1.8873 100° East 342 394 16,300 -2,160 Descending FlightAware UK
03:57AM 51.4325 -1.8466 100° East 359 413 17,400 -2,040 Climbing FlightAware ADS-B
03:57AM 51.3972 -1.8098 100° East 340 391 15,300 -1,920 Descending FlightAware UK
03:57AM 51.4236 -1.7642 100° East 353 406 16,400 -2,040 Climbing FlightAware ADS-B
03:58AM 51.3883 -1.7336 100° East 330 380 14,300 -2,220 Descending FlightAware UK
03:58AM 51.4153 -1.6866 100° East 351 404 15,300 180 Climbing FlightAware ADS-B
03:59AM 51.4055 -1.5973 100° East 338 389 14,500 -3,000 Descending FlightAware ADS-B
03:59AM 51.3692 -1.5556 100° East 298 343 12,500 -1,020 Descending FlightAware UK
03:59AM 51.3966 -1.5242 100° East 326 375 14,000  Climbing FlightAware ADS-B
03:59AM 51.3590 -1.4852 100° East 298 343 12,500  Descending FlightAware UK
04:00AM 51.3865 -1.4533 100° East 330 380 14,000  Climbing FlightAware ADS-B
04:00AM 51.3508 -1.4290 100° East 300 345 12,500 -420 Descending FlightAware UK
04:00AM 51.3758 -1.3812 100° East 330 380 13,800 1,020 Climbing FlightAware ADS-B
04:01AM 51.3652 -1.3096 103° East 327 376 13,300 -3,120 Descending FlightAware ADS-B
04:01AM 51.3277 -1.2753 103° East 296 341 11,200 -1,620 Descending FlightAware UK
04:01AM 51.3547 -1.2394 103° East 324 373 12,500 1,320 Climbing FlightAware ADS-B
04:02AM 51.3463 -1.1817 103° East 322 371 12,000 -1,200 Descending FlightAware ADS-B
04:02AM 51.3432 -1.1472 98° East 318 366 11,700 -1,380 Descending FlightAware ADS-B
04:02AM 51.3420 -1.0760 92° East 309 356 11,000 -2,940 Descending FlightAware ADS-B
04:03AM 51.3121 -1.0551 92° East 274 315 9,400  Descending FlightAware UK
04:03AM 51.3415 -1.0099 92° East 280 322 11,000 2,340 Climbing FlightAware ADS-B
04:03AM 51.3410 -0.9538 91° East 274 315 11,000 -1,980 Level FlightAware ADS-B
04:04AM 51.3110 -0.9344 91° East 254 292 9,500  Descending FlightAware UK
04:04AM 51.3399 -0.8929 91° East 273 314 11,000 2,100 Climbing FlightAware ADS-B
04:04AM 51.3391 -0.8312 91° East 273 314 11,000 -1,920 Level FlightAware ADS-B
04:05AM 51.3095 -0.8151 91° East 254 292 9,500  Descending FlightAware UK
04:05AM 51.3382 -0.7706 91° East 275 316 11,000  Climbing FlightAware ADS-B
04:05AM 51.3087 -0.7427 91° East 256 295 9,500  Descending FlightAware UK
04:05AM 51.3374 -0.7095 91° East 276 318 11,000 2,040 Climbing FlightAware ADS-B
04:06AM 51.3365 -0.6573 92° East 274 315 10,600 -2,880 Descending FlightAware ADS-B
04:06AM 51.3072 -0.6341 92° East 254 292 8,700 -1,020 Descending FlightAware UK
04:06AM 51.3357 -0.5965 92° East 269 310 10,100 2,400 Climbing FlightAware ADS-B
04:07AM 51.3348 -0.5495 92° East 264 304 10,000 -120 Descending FlightAware ADS-B
04:07AM 51.3338 -0.4901 92° East 266 306 10,000  Level FlightAware ADS-B
04:07AM 51.3333 -0.4518 91° East 267 307 10,000  Level FlightAware ADS-B
04:08AM 51.3327 -0.4244 92° East 265 305 10,000 -2,820 Level FlightAware ADS-B
04:08AM 51.3060 -0.4137 92° East 250 288 8,500  Descending FlightAware UK
04:08AM 51.3339 -0.3690 92° East 267 307 10,000 2,880 Climbing FlightAware ADS-B
04:08AM 51.3339 -0.3274 90° East 267 307 10,000  Level FlightAware ADS-B
04:09AM 51.3336 -0.3140 92° East 266 306 10,000  Level FlightAware ADS-B
04:09AM 51.3327 -0.3059 100° East 267 307 10,000  Level FlightAware ADS-B
04:09AM 51.3315 -0.3003 109° East 268 308 10,000  Level FlightAware ADS-B
04:09AM 51.3291 -0.2920 115° Southeast 269 310 10,000  Level FlightAware ADS-B
04:09AM 51.3273 -0.2869 119° Southeast 269 310 10,000  Level FlightAware ADS-B
04:09AM 51.3224 -0.2778 131° Southeast 270 311 10,000  Level FlightAware ADS-B
04:09AM 51.3175 -0.2711 140° Southeast 271 312 10,000 -600 Level FlightAware ADS-B
04:09AM 51.3122 -0.2657 148° Southeast 274 315 9,900 -900 Descending FlightAware ADS-B
04:09AM 51.3017 -0.2602 162° South 273 314 9,800 -780 Descending FlightAware ADS-B
04:09AM 51.2926 -0.2601 179° South 267 307 9,700 -1,200 Descending FlightAware ADS-B
04:10AM 51.2830 -0.2639 194° South 261 300 9,500 -1,020 Descending FlightAware ADS-B
04:10AM 51.2790 -0.2670 206° Southwest 254 292 9,500 -720 Level FlightAware ADS-B
04:10AM 51.2742 -0.2721 214° Southwest 249 287 9,400 -1,140 Descending FlightAware ADS-B
04:10AM 51.2696 -0.2792 224° Southwest 245 282 9,300 -1,140 Descending FlightAware ADS-B
04:10AM 51.2665 -0.2862 235° Southwest 242 278 9,200 -1,380 Descending FlightAware ADS-B
04:10AM 51.2641 -0.2932 241° Southwest 239 275 9,100 -720 Descending FlightAware ADS-B
04:10AM 51.2623 -0.3013 250° West 237 273 9,100 -600 Level FlightAware ADS-B
04:10AM 51.2615 -0.3090 261° West 234 269 9,000 -600 Descending FlightAware ADS-B
04:10AM 51.2612 -0.3176 267° West 232 267 9,000  Level FlightAware ADS-B
04:10AM 51.2622 -0.3296 278° West 229 264 9,000  Level FlightAware ADS-B
04:10AM 51.2630 -0.3348 284° West 228 262 9,000  Level FlightAware ADS-B
04:10AM 51.2643 -0.3395 294° West 228 262 9,000  Level FlightAware ADS-B
04:10AM 51.2666 -0.3466 298° West 228 262 9,000  Level FlightAware ADS-B
04:11AM 51.2685 -0.3509 305° West 228 262 9,000  Level FlightAware ADS-B
04:11AM 51.2711 -0.3555 312° West 227 261 9,000  Level FlightAware ADS-B
04:11AM 51.2746 -0.3603 319° Northwest 228 262 9,000  Level FlightAware ADS-B
04:11AM 51.2777 -0.3639 324° Northwest 228 262 9,000  Level FlightAware ADS-B
04:11AM 51.2862 -0.3715 331° Northwest 228 262 9,000  Level FlightAware ADS-B
04:11AM 51.2912 -0.3767 327° Northwest 228 262 9,000  Level FlightAware ADS-B
04:11AM 51.2938 -0.3795 325° Northwest 228 262 9,000  Level FlightAware ADS-B
04:11AM 51.3024 -0.3896 324° Northwest 229 264 9,000  Level FlightAware ADS-B
04:11AM 51.3156 -0.4036 326° Northwest 228 262 9,000  Level FlightAware ADS-B
04:12AM 51.3291 -0.4173 328° Northwest 228 262 9,000  Level FlightAware ADS-B
04:12AM 51.3329 -0.4206 332° Northwest 228 262 9,000  Level FlightAware ADS-B
04:12AM 51.3365 -0.4232 336° Northwest 229 264 9,000  Level FlightAware ADS-B
04:12AM 51.3405 -0.4247 347° North 231 266 9,000  Level FlightAware ADS-B
04:12AM 51.3474 -0.4251 358° North 233 268 9,000  Level FlightAware ADS-B
04:12AM 51.3514 -0.4243 North 235 270 9,000  Level FlightAware ADS-B
04:12AM 51.3556 -0.4228 13° North 237 273 9,000  Level FlightAware ADS-B
04:12AM 51.3599 -0.4206 18° North 240 276 9,000  Level FlightAware ADS-B
04:12AM 51.3635 -0.4179 25° Northeast 242 278 9,000  Level FlightAware ADS-B
04:12AM 51.3667 -0.4146 33° Northeast 243 280 9,000  Level FlightAware ADS-B
04:12AM 51.3702 -0.4102 38° Northeast 245 282 9,000  Level FlightAware ADS-B
04:12AM 51.3736 -0.4045 46° Northeast 248 285 9,000  Level FlightAware ADS-B
04:12AM 51.3762 -0.3990 53° Northeast 249 287 9,000  Level FlightAware ADS-B
04:13AM 51.3779 -0.3940 61° Northeast 251 289 9,000  Level FlightAware ADS-B
04:13AM 51.3794 -0.3883 67° East 253 291 9,000 -900 Level FlightAware ADS-B
04:13AM 51.3808 -0.3808 73° East 256 295 8,900 -1,500 Descending FlightAware ADS-B
04:13AM 51.3817 -0.3732 79° East 259 298 8,800 -780 Descending FlightAware ADS-B
04:13AM 51.3817 -0.3670 90° East 261 300 8,800 -900 Level FlightAware ADS-B
04:13AM 51.3813 -0.3605 96° East 262 302 8,700 -1,020 Descending FlightAware ADS-B
04:13AM 51.3804 -0.3545 104° East 264 304 8,700 -900 Level FlightAware ADS-B
04:13AM 51.3788 -0.3468 108° East 263 303 8,600 -1,500 Descending FlightAware ADS-B
04:13AM 51.3769 -0.3411 118° Southeast 264 304 8,500 -900 Descending FlightAware ADS-B
04:13AM 51.3748 -0.3360 123° Southeast 265 305 8,500 -1,020 Level FlightAware ADS-B
04:13AM 51.3669 -0.3238 136° Southeast 265 305 8,300 -1,020 Descending FlightAware ADS-B
04:13AM 51.3635 -0.3200 145° Southeast 265 305 8,300 -600 Level FlightAware ADS-B
04:13AM 51.3564 -0.3133 150° Southeast 265 305 8,200 -780 Descending FlightAware ADS-B
04:14AM 51.3386 -0.2965 149° Southeast 263 303 8,000 -420 Descending FlightAware ADS-B
04:14AM 51.3210 -0.2807 151° Southeast 262 302 8,000  Level FlightAware ADS-B
04:14AM 51.3090 -0.2699 151° Southeast 263 303 8,000  Level FlightAware ADS-B
04:14AM 51.3027 -0.2657 158° South 262 302 8,000  Level FlightAware ADS-B
04:14AM 51.2991 -0.2644 166° South 261 300 8,000  Level FlightAware ADS-B
04:14AM 51.2919 -0.2639 178° South 257 296 8,000  Level FlightAware ADS-B
04:14AM 51.2869 -0.2651 188° South 255 293 8,000  Level FlightAware ADS-B
04:15AM 51.2821 -0.2673 196° South 252 290 8,000  Level FlightAware ADS-B
04:15AM 51.2776 -0.2706 204° Southwest 249 287 8,000  Level FlightAware ADS-B
04:15AM 51.2740 -0.2741 212° Southwest 247 284 8,000  Level FlightAware ADS-B
04:15AM 51.2694 -0.2805 221° Southwest 245 282 8,000  Level FlightAware ADS-B
04:15AM 51.2672 -0.2847 230° Southwest 244 281 8,000  Level FlightAware ADS-B
04:15AM 51.2651 -0.2889 232° Southwest 241 277 8,000  Level FlightAware ADS-B
04:15AM 51.2630 -0.2953 242° Southwest 239 275 8,000  Level FlightAware ADS-B
04:15AM 51.2613 -0.3030 251° West 235 270 8,000  Level FlightAware ADS-B
04:15AM 51.2605 -0.3095 259° West 233 268 8,000  Level FlightAware ADS-B
04:15AM 51.2601 -0.3152 264° West 231 266 8,000  Level FlightAware ADS-B
04:15AM 51.2605 -0.3234 274° West 229 264 8,000  Level FlightAware ADS-B
04:15AM 51.2610 -0.3289 278° West 227 261 8,000  Level FlightAware ADS-B
04:15AM 51.2623 -0.3363 286° West 226 260 8,000  Level FlightAware ADS-B
04:15AM 51.2641 -0.3420 297° West 225 259 8,000  Level FlightAware ADS-B
04:15AM 51.2663 -0.3473 303° West 224 258 8,000  Level FlightAware ADS-B
04:16AM 51.2694 -0.3533 310° West 224 258 8,000  Level FlightAware ADS-B
04:16AM 51.2720 -0.3571 318° Northwest 224 258 8,000  Level FlightAware ADS-B
04:16AM 51.2747 -0.3602 324° Northwest 225 259 8,000  Level FlightAware ADS-B
04:16AM 51.2792 -0.3645 329° Northwest 225 259 8,000  Level FlightAware ADS-B
04:16AM 51.2864 -0.3708 331° Northwest 225 259 8,000  Level FlightAware ADS-B
04:16AM 51.2920 -0.3768 326° Northwest 226 260 8,000  Level FlightAware ADS-B
04:16AM 51.3063 -0.3930 325° Northwest 226 260 8,000 -600 Level FlightAware ADS-B
04:17AM 51.3199 -0.4070 327° Northwest 227 261 7,700 -1,020 Descending FlightAware ADS-B
04:17AM 51.3334 -0.4206 328° Northwest 224 258 7,500 -1,080 Descending FlightAware ADS-B
04:17AM 51.3461 -0.4325 330° Northwest 222 255 7,200 -1,200 Descending FlightAware ADS-B
04:17AM 51.3518 -0.4357 341° North 222 255 7,100 -1,140 Descending FlightAware ADS-B
04:17AM 51.3570 -0.4366 354° North 223 257 7,000 -780 Descending FlightAware ADS-B
04:17AM 51.3606 -0.4362 North 224 258 7,000  Level FlightAware ADS-B
04:17AM 51.3653 -0.4345 13° North 226 260 7,000  Level FlightAware ADS-B
04:17AM 51.3683 -0.4326 21° North 229 264 7,000  Level FlightAware ADS-B
04:17AM 51.3719 -0.4295 28° Northeast 231 266 7,000  Level FlightAware ADS-B
04:18AM 51.3762 -0.4240 39° Northeast 233 268 7,000  Level FlightAware ADS-B
04:18AM 51.3791 -0.4189 48° Northeast 236 272 7,000  Level FlightAware ADS-B
04:18AM 51.3818 -0.4124 56° Northeast 239 275 7,000  Level FlightAware ADS-B
04:18AM 51.3846 -0.4017 67° East 244 281 7,000  Level FlightAware ADS-B
04:18AM 51.3856 -0.3947 77° East 248 285 7,000  Level FlightAware ADS-B
04:18AM 51.3879 -0.3665 83° East 250 288 7,000  Level FlightAware ADS-B
04:18AM 51.3904 -0.3370 82° East 247 284 7,000  Level FlightAware ADS-B
04:19AM 51.3930 -0.3085 82° East 247 284 7,000  Level FlightAware ADS-B
04:19AM 51.3937 -0.2997 83° East 248 285 7,000  Level FlightAware ADS-B
04:19AM 51.3942 -0.2901 85° East 249 287 7,000  Level FlightAware ADS-B
04:19AM 51.3951 -0.2616 87° East 248 285 7,000  Level FlightAware ADS-B
04:19AM 51.3959 -0.2341 87° East 249 287 7,000 -660 Level FlightAware ADS-B
04:20AM 51.3968 -0.2082 87° East 251 289 6,700 -1,080 Descending FlightAware ADS-B
04:20AM 51.3976 -0.1804 87° East 249 287 6,500 -1,020 Descending FlightAware ADS-B
04:20AM 51.3982 -0.1620 87° East 247 284 6,300 -1,200 Descending FlightAware ADS-B
04:20AM 51.3988 -0.1350 88° East 245 282 6,000 -1,020 Descending FlightAware ADS-B
04:20AM 51.3997 -0.1078 87° East 245 282 5,800 -1,020 Descending FlightAware ADS-B
04:21AM 51.4005 -0.0799 87° East 246 283 5,500 -1,140 Descending FlightAware ADS-B
04:21AM 51.4017 -0.0476 87° East 244 281 5,200 -960 Descending FlightAware ADS-B
04:21AM 51.4028 -0.0350 82° East 237 273 5,100 -1,080 Descending FlightAware ADS-B
04:21AM 51.4052 -0.0191 76° East 228 262 4,900 -4,440 Descending FlightAware ADS-B
04:22AM 51.3905 -0.0252 76° East 210 242 3,200 -480 Descending FlightAware UK
04:22AM 51.4128 0.0190 76° East 214 246 4,700 3,720 Climbing FlightAware ADS-B
04:22AM 51.4168 0.0405 73° East 196 226 4,700  Level FlightAware ADS-B
04:22AM 51.4230 0.0604 64° Northeast 196 226 4,700  Level FlightAware ADS-B
04:22AM 51.4270 0.0650 36° Northeast 180 207 4,700  Level FlightAware ADS-B
04:22AM 51.4315 0.0677 21° North 177 204 4,700  Level FlightAware ADS-B
04:23AM 51.4385 0.0688 North 176 203 4,700 -300 Level FlightAware ADS-B
04:23AM 51.4515 0.0687 360° North 175 201 4,600 -480 Descending FlightAware ADS-B
04:23AM 51.4582 0.0649 341° North 171 197 4,500 -420 Descending FlightAware ADS-B
04:23AM 51.4613 0.0602 317° Northwest 167 192 4,500  Level FlightAware ADS-B
04:23AM 51.4639 0.0537 303° West 167 192 4,500 -420 Level FlightAware ADS-B
04:23AM 51.4665 0.0429 291° West 170 196 4,400 -480 Descending FlightAware ADS-B
04:24AM 51.4706 0.0245 290° West 170 196 4,300 -360 Descending FlightAware ADS-B
04:24AM 51.4759 0.0015 290° West 168 193 4,200 -360 Descending FlightAware ADS-B
04:24AM 51.4799 -0.0160 290° West 165 190 4,100 -480 Descending FlightAware ADS-B
04:24AM 51.4823 -0.0266 290° West 165 190 4,000 -420 Descending FlightAware ADS-B
04:24AM 51.4834 -0.0335 284° West 166 191 4,000  Level FlightAware ADS-B
04:24AM 51.4838 -0.0380 278° West 167 192 4,000 -600 Level FlightAware ADS-B
04:25AM 51.4841 -0.0469 273° West 169 194 3,900 -600 Descending FlightAware ADS-B
04:25AM 51.4838 -0.0620 268° West 169 194 3,800 -240 Descending FlightAware ADS-B
04:25AM 51.4838 -0.0824 270° West 169 194 3,800 -420 Level FlightAware ADS-B
04:25AM 51.4838 -0.1035 270° West 170 196 3,600 -960 Descending FlightAware ADS-B
04:26AM 51.4836 -0.1246 269° West 171 197 3,300 -1,080 Descending FlightAware ADS-B
04:26AM 51.4835 -0.1472 270° West 162 186 3,000 -900 Descending FlightAware ADS-B
04:26AM 51.4834 -0.1657 270° West 152 175 2,800 -780 Descending FlightAware ADS-B
04:26AM 51.4833 -0.1826 269° West 152 175 2,600 -960 Descending FlightAware ADS-B
04:27AM 51.4833 -0.2026 270° West 149 171 2,300 -1,020 Descending FlightAware ADS-B
04:27AM 51.4831 -0.2239 269° West 150 173 2,000 -960 Descending FlightAware ADS-B
04:27AM 51.4829 -0.2384 269° West 148 170 1,800 -840 Descending FlightAware ADS-B
04:28AM 51.4829 -0.2562 270° West 148 170 1,600 -720 Descending FlightAware ADS-B
04:28AM 51.4830 -0.2920 270° West 149 171 1,200 -780 Descending FlightAware
04:29AM 51.4830 -0.3250 270° West 136 157 800 -840 Descending FlightAware
04:29AM 51.4830 -0.3370 270° West 130 150 600 -720 Descending FlightAware
04:29AM 51.4820 -0.3720 267° West 128 147 200 -720 Descending FlightAware
04:30AM 51.4820 -0.3920 270° West 128 147 -300 Descending FlightAware
04:31AM 51.4820 -0.4130 270° West 128 147  Level FlightAware